Latest Weather Observations for Miles

IDQ60801

Issued at 12:42 pm EST Saturday 17 November 2018 (issued every 10 minutes, with the page automatically refreshed every 10 minutes)

About weather observations | Map of weather stations | Latest weather observations for QLD | Other Formats
Station Details ID: 042112 Name: MILES CONSTANCE STREET Lat: -26.66 Lon: 150.18 Height: 304.8 m
Data from the previous 72 hours. | See also: Recent months at Miles
Date/Time
EST
Temp
°C
App
Temp
°C
Dew
Point
°C
Rel
Hum
%
Delta-T
°C
Wind Press
QNH
hPa
Press
MSL
hPa
Rain since
9am
mm
Dir  Spd
km/h
Gust
km/h
Spd
kts
Gust
kts
17/12:30pm 32.0 31.3 13.2 31 11.4 NW 9 15 5 8 1013.6 - 0.0
17/12:00pm 33.1 31.6 13.0 29 12.2 NNW 13 20 7 11 1014.2 1012.6 0.0
17/11:30am 32.1 30.8 13.8 33 11.2 N 13 24 7 13 1014.6 - 0.0
17/11:00am 30.8 30.3 14.8 37 9.9 NW 11 20 6 11 1015.1 - 0.0
17/10:30am 29.9 29.1 15.0 40 9.2 NNW 13 24 7 13 1015.6 - 0.0
17/10:00am 29.3 28.6 15.3 42 8.7 N 13 24 7 13 1016.0 - 0.0
17/09:30am 28.2 27.5 15.4 45 7.9 N 13 22 7 12 1016.2 - 0.0
17/09:00am 26.7 25.7 15.7 51 6.8 N 15 24 8 13 1016.3 1014.8 0.0
17/08:30am 26.3 25.4 15.8 52 6.5 N 15 26 8 14 1016.2 - 0.0
17/08:00am 24.8 24.3 16.0 58 5.4 N 13 26 7 14 1016.1 - 0.0
17/07:30am 23.8 22.1 15.8 61 4.9 N 19 30 10 16 1016.0 - 0.0
17/07:00am 22.6 21.0 16.1 66 4.0 N 19 28 10 15 1015.9 - 0.0
17/06:30am 21.7 20.4 15.9 69 3.5 N 17 26 9 14 1015.5 - 0.0
17/06:00am 20.6 19.7 15.8 74 2.9 NNE 15 26 8 14 1015.3 1013.8 0.0
17/05:30am 20.1 19.9 15.6 75 2.7 N 11 19 6 10 1015.2 - 0.0
17/05:00am 20.1 19.8 15.4 74 2.8 NNE 11 20 6 11 1014.8 - 0.0
17/04:30am 20.4 19.6 15.2 72 3.1 NNE 13 20 7 11 1014.4 - 0.0
17/04:00am 20.8 20.3 14.9 69 3.5 NNE 11 19 6 10 1014.3 - 0.0
17/03:30am 21.3 20.8 14.8 66 3.9 NNE 11 20 6 11 1014.1 - 0.0
17/03:00am 21.7 21.1 14.5 63 4.3 NNE 11 20 6 11 1013.8 1012.3 0.0
17/02:30am 22.2 21.9 14.5 61 4.6 NNE 9 13 5 7 1013.7 - 0.0
17/02:00am 22.9 22.1 14.1 57 5.2 NNE 11 20 6 11 1013.7 - 0.0
17/01:30am 23.0 22.3 14.3 58 5.2 N 11 17 6 9 1013.7 - 0.0
17/01:00am 23.6 23.6 14.2 55 5.6 NNE 7 9 4 5 1014.3 - 0.0
17/12:30am 24.0 23.8 13.7 52 6.1 NNE 7 11 4 6 1014.5 - 0.0
17/12:00am 24.7 24.3 13.1 48 6.8 N 7 11 4 6 1014.8 1013.2 0.0
 
Date/Time
EST
Temp
°C
App
Temp
°C
Dew
Point
°C
Rel
Hum
%
Delta-T
°C
Wind Press
QNH
hPa
Press
MSL
hPa
Rain since
9am
mm
Dir  Spd
km/h
Gust
km/h
Spd
kts
Gust
kts
16/11:30pm 24.9 24.2 12.1 44 7.4 NE 7 17 4 9 1014.9 - 0.0
16/11:00pm 23.0 23.7 12.2 50 6.2 CALM 0 0 0 0 1014.4 - 0.0
16/10:30pm 22.9 24.0 13.5 55 5.5 CALM 0 0 0 0 1014.4 - 0.0
16/10:00pm 23.1 24.2 13.4 54 5.7 CALM 0 0 0 0 1014.2 - 0.0
16/09:30pm 23.2 24.2 13.1 53 5.9 CALM 0 0 0 0 1014.1 - 0.0
16/09:00pm 23.2 24.0 12.5 51 6.2 CALM 0 0 0 0 1013.6 1012.1 0.0
16/08:30pm 23.3 23.9 12.0 49 6.5 CALM 0 0 0 0 1013.4 - 0.0
16/08:00pm 24.3 25.0 12.2 46 7.0 CALM 0 0 0 0 1013.3 - 0.0
16/07:30pm 25.5 26.3 12.5 44 7.6 CALM 0 0 0 0 1013.0 - 0.0
16/07:00pm 27.0 27.4 11.4 37 9.0 CALM 0 0 0 0 1012.8 - 0.0
16/06:30pm 29.4 30.5 13.5 37 9.6 CALM 0 0 0 0 1012.7 - 0.0
16/06:00pm 31.6 30.6 8.8 24 12.9 SSE 4 6 2 3 1012.4 1010.9 0.0
16/05:30pm 33.1 31.0 5.6 18 14.9 SSW 6 9 3 5 1012.1 - 0.0
16/05:00pm 33.6 31.5 5.7 17 15.2 E 6 15 3 8 1012.0 - 0.0
16/04:30pm 34.9 33.4 6.7 17 15.7 S 4 13 2 7 1011.9 - 0.0
16/04:00pm 34.6 31.9 5.4 16 15.9 SSE 9 15 5 8 1012.1 - 0.0
16/03:30pm 34.8 30.7 4.5 15 16.3 S 15 22 8 12 1012.4 - 0.0
16/03:00pm 34.5 32.4 6.8 18 15.4 SW 7 17 4 9 1012.6 1011.1 0.0
16/02:30pm 33.6 32.7 9.3 22 14.0 W 4 9 2 5 1013.0 - 0.0
16/02:00pm 32.5 31.2 10.1 25 13.0 NE 7 9 4 5 1013.6 - 0.0
16/01:30pm 32.6 31.7 10.5 25 12.9 ENE 6 11 3 6 1014.3 - 0.0
16/01:00pm 32.5 31.2 10.1 25 13.0 NE 7 13 4 7 1014.7 - 0.0
16/12:30pm 32.7 31.4 11.4 27 12.6 E 9 13 5 7 1015.2 - 0.0
16/12:00pm 32.0 29.8 10.8 27 12.4 W 13 24 7 13 1015.7 1014.2 0.0
16/11:30am 31.8 30.5 12.4 30 11.6 NNE 11 17 6 9 1016.3 - 0.0
16/11:00am 31.4 29.7 12.5 31 11.3 N 13 22 7 12 1016.8 - 0.0
16/10:30am 30.7 29.3 13.3 34 10.5 N 13 20 7 11 1017.4 - 0.0
16/10:00am 30.3 29.1 14.1 37 9.9 N 13 22 7 12 1017.7 - 0.0
16/09:30am 28.7 26.7 14.0 40 8.9 N 17 26 9 14 1017.9 - 0.0
16/09:00am 28.4 27.0 14.5 42 8.5 N 15 22 8 12 1017.9 1016.3 0.0
16/08:30am 27.0 25.4 14.0 44 7.8 N 15 24 8 13 1018.2 - 0.0
16/08:00am 25.5 24.4 15.4 53 6.2 NNE 15 22 8 12 1018.2 - 0.0
16/07:30am 24.4 23.3 15.2 56 5.6 N 15 22 8 12 1018.3 - 0.0
16/07:00am 23.2 22.3 14.9 59 5.0 N 13 22 7 12 1018.2 - 0.0
16/06:30am 21.8 20.7 14.2 62 4.5 N 13 19 7 10 1018.0 - 0.0
16/06:00am 20.7 19.9 13.9 65 4.0 N 11 19 6 10 1017.8 1016.2 0.0
16/05:30am 20.0 19.8 13.6 66 3.7 NNE 7 11 4 6 1017.7 - 0.0
16/05:00am 19.9 19.6 13.3 65 3.8 N 7 11 4 6 1017.0 - 0.0
16/04:30am 20.4 19.7 13.1 63 4.2 N 9 13 5 7 1016.5 - 0.0
16/04:00am 20.8 19.7 13.2 61 4.4 N 11 17 6 9 1016.2 - 0.0
16/03:30am 21.1 20.4 13.2 60 4.6 N 9 15 5 8 1016.0 - 0.0
16/03:00am 21.5 20.5 13.4 60 4.7 N 11 17 6 9 1015.8 1014.3 0.0
16/02:30am 22.0 20.9 13.2 57 5.1 N 11 15 6 8 1015.8 - 0.0
16/02:00am 22.5 21.4 13.0 55 5.5 N 11 19 6 10 1015.9 - 0.0
16/01:30am 22.5 21.4 13.0 55 5.5 N 11 17 6 9 1016.0 - 0.0
16/01:00am 22.6 22.2 13.0 54 5.6 N 7 9 4 5 1016.5 - 0.0
16/12:30am 22.8 22.3 12.8 53 5.8 N 7 11 4 6 1016.4 - 0.0
16/12:00am 23.6 22.7 12.6 50 6.4 N 9 13 5 7 1016.7 1015.2 0.0
 
Date/Time
EST
Temp
°C
App
Temp
°C
Dew
Point
°C
Rel
Hum
%
Delta-T
°C
Wind Press
QNH
hPa
Press
MSL
hPa
Rain since
9am
mm
Dir  Spd
km/h
Gust
km/h
Spd
kts
Gust
kts
15/11:30pm 22.3 21.3 12.4 53 5.7 N 9 15 5 8 1016.7 - 0.0
15/11:00pm 21.3 21.6 14.6 65 4.0 N 6 7 3 4 1016.6 - 0.0
15/10:30pm 22.0 23.5 14.6 63 4.4 CALM 0 0 0 0 1016.6 - 0.0
15/10:00pm 23.1 24.5 14.4 58 5.2 CALM 0 0 0 0 1016.6 - 0.0
15/09:30pm 23.4 24.3 15.1 59 5.0 N 4 7 2 4 1016.5 - 0.0
15/09:00pm 23.5 25.2 15.2 59 5.0 CALM 0 0 0 0 1016.3 1014.8 0.0
15/08:30pm 23.8 25.4 15.0 57 5.3 CALM 0 4 0 2 1016.1 - 0.0
15/08:00pm 24.1 25.4 14.2 54 5.9 CALM 0 0 0 0 1016.0 - 0.0
15/07:30pm 24.9 26.7 15.4 55 5.8 CALM 0 0 0 0 1015.8 - 0.0
15/07:00pm 26.1 27.5 14.5 48 7.0 CALM 0 0 0 0 1015.6 - 0.0
15/06:30pm 28.0 29.2 13.9 42 8.5 CALM 0 0 0 0 1015.4 - 0.0
15/06:00pm 29.5 29.6 12.7 35 10.0 NE 4 7 2 4 1015.1 1013.6 0.0
15/05:30pm 30.4 30.1 11.5 31 11.1 E 4 7 2 4 1014.9 - 0.0
15/05:00pm 31.0 30.0 11.0 29 11.7 ENE 7 11 4 6 1014.7 - 0.0
15/04:30pm 31.6 30.8 10.9 28 12.1 NNE 6 13 3 7 1014.8 - 0.0
15/04:00pm 31.7 30.6 10.8 27 12.2 NE 7 11 4 6 1014.9 - 0.0
15/03:30pm 32.5 32.0 10.6 26 12.8 N 4 9 2 5 1015.0 - 0.0
15/03:00pm 30.7 29.7 11.0 29 11.5 ENE 7 13 4 7 1015.3 1013.8 0.0
15/02:30pm 30.9 29.9 11.0 29 11.6 N 7 9 4 5 1015.6 - 0.0
15/02:00pm 31.2 30.3 10.5 28 12.0 NNW 6 9 3 5 1015.8 - 0.0
15/01:30pm 31.6 30.8 11.2 28 12.0 W 6 11 3 6 1016.3 - 0.0
15/01:00pm 31.0 30.5 11.9 31 11.3 NNW 6 9 3 5 1016.8 - 0.0
15/12:30pm 29.8 28.1 11.3 32 10.8 W 11 15 6 8 1017.1 - 0.0
15/12:00pm 30.1 29.1 12.2 33 10.6 WSW 9 15 5 8 1017.6 1016.0 0.0
15/11:30am 30.4 29.2 11.7 31 11.0 E 9 20 5 11 1018.0 - 0.0
15/11:00am 29.2 28.9 13.2 37 9.6 SSW 7 13 4 7 1018.5 - 0.0
15/10:30am 29.7 29.0 14.3 39 9.4 NNW 11 22 6 12 1019.1 - 0.0
15/10:00am 29.0 28.4 14.6 41 8.8 N 11 17 6 9 1019.3 - 0.0
15/09:30am 27.8 27.1 15.5 47 7.6 NNW 13 20 7 11 1019.6 - 0.0
15/09:00am 26.6 25.9 15.4 50 6.9 N 13 24 7 13 1019.7 1018.2 0.0
15/08:30am 25.6 24.6 15.5 53 6.2 N 15 24 8 13 1019.7 - 0.0
15/08:00am 24.2 23.8 16.3 61 4.9 NNW 13 22 7 12 1019.8 - 0.0
15/07:30am 23.5 23.6 16.5 65 4.3 N 11 22 6 12 1019.5 - 0.0
15/07:00am 21.7 21.0 16.3 71 3.3 N 15 20 8 11 1019.3 - 0.0
15/06:30am 20.7 20.5 16.6 77 2.5 N 13 22 7 12 1018.9 - 0.0
15/06:00am 19.0 19.0 16.2 84 1.7 N 11 19 6 10 1018.5 1017.0 0.0
15/05:30am 17.7 18.3 15.7 88 1.2 N 7 9 4 5 1018.2 - 0.0
15/05:00am 17.5 18.1 15.7 89 1.1 N 7 13 4 7 1017.6 - 0.0
15/04:30am 17.9 18.1 15.7 87 1.3 N 9 11 5 6 1017.0 - 0.0
15/04:00am 17.9 18.0 15.5 86 1.4 N 9 13 5 7 1016.7 - 0.0
15/03:30am 17.9 18.3 15.2 84 1.6 N 7 9 4 5 1016.5 - 0.0
15/03:00am 18.0 18.5 15.1 83 1.7 N 6 9 3 5 1016.4 1014.9 0.0
15/02:30am 18.3 18.5 14.7 79 2.1 N 7 11 4 6 1016.2 - 0.0
15/02:00am 18.0 18.3 14.4 79 2.1 N 6 9 3 5 1016.3 - 0.0
15/01:30am 18.4 18.4 13.7 74 2.7 N 6 7 3 4 1016.4 - 0.0
15/01:00am 18.4 18.1 13.3 72 2.9 N 7 9 4 5 1016.5 - 0.0
15/12:30am 18.6 18.1 12.6 68 3.4 N 7 9 4 5 1017.0 - 0.0
15/12:00am 19.0 18.3 12.1 64 3.9 N 7 9 4 5 1017.4 1015.8 0.0
 
Date/Time
EST
Temp
°C
App
Temp
°C
Dew
Point
°C
Rel
Hum
%
Delta-T
°C
Wind Press
QNH
hPa
Press
MSL
hPa
Rain since
9am
mm
Dir  Spd
km/h
Gust
km/h
Spd
kts
Gust
kts
14/11:30pm 20.0 18.7 11.4 57 4.8 N 9 15 5 8 1017.7 - 0.0
14/11:00pm 18.0 18.5 11.7 66 3.5 CALM 0 0 0 0 1017.5 - 0.0
14/10:30pm 18.4 19.2 12.4 68 3.4 CALM 0 0 0 0 1017.2 - 0.0
14/10:00pm 19.1 19.6 11.6 62 4.2 CALM 0 0 0 0 1017.5 - 0.0
14/09:30pm 19.8 20.6 12.6 63 4.1 CALM 0 0 0 0 1017.6 - 0.0
14/09:00pm 20.5 21.1 12.0 58 4.8 CALM 0 0 0 0 1017.6 1016.0 0.0
14/08:30pm 21.5 22.0 11.6 53 5.6 CALM 0 6 0 3 1017.4 - 0.0
14/08:00pm 22.3 23.0 12.2 52 5.8 CALM 0 0 0 0 1017.0 - 0.0
14/07:30pm 23.7 24.6 12.9 50 6.3 CALM 0 0 0 0 1016.9 - 0.0
14/07:00pm 26.2 25.9 11.4 39 8.5 E 4 7 2 4 1016.8 - 0.0
14/06:30pm 27.3 25.4 8.9 31 10.2 ENE 9 13 5 7 1016.4 - 0.0
14/06:00pm 28.0 24.8 8.5 29 10.8 NE 15 20 8 11 1016.1 1014.6 0.0
14/05:30pm 29.2 25.9 8.0 26 11.7 ENE 15 20 8 11 1015.8 - 0.0
14/05:00pm 28.7 26.1 7.7 26 11.5 E 11 17 6 9 1015.8 - 0.0
14/04:30pm 29.3 27.0 7.6 25 11.9 ESE 9 20 5 11 1015.7 - 0.0
14/04:00pm 29.7 26.8 6.6 23 12.5 SE 11 17 6 9 1015.7 - 0.0
14/03:30pm 29.9 28.4 8.4 26 12.0 ESE 6 9 3 5 1015.6 - 0.0
14/03:00pm 29.7 27.1 7.7 25 12.1 SE 11 19 6 10 1015.7 1014.2 0.0
14/02:30pm 30.0 27.8 7.7 24 12.3 S 9 20 5 11 1015.9 - 0.0
14/02:00pm 29.9 27.8 9.7 28 11.5 SSE 11 17 6 9 1016.0 - 0.0
14/01:30pm 30.8 29.2 8.8 25 12.4 WSW 7 19 4 10 1016.3 - 0.0
14/01:00pm 30.0 27.8 9.3 27 11.7 ENE 11 19 6 10 1016.7 - 0.0

Other Formats:

Comma delimited format used in spreadsheet applications
http://www.bom.gov.au/fwo/IDQ60801/IDQ60801.95529.axf

JavaScript Object Notation format (JSON) in row-major order
http://www.bom.gov.au/fwo/IDQ60801/IDQ60801.95529.json